createdAt,value
2019-04-21T00:00:58.618Z,4.37
2019-04-21T00:03:33.376Z,4.73
2019-04-21T00:06:15.630Z,6.10
2019-04-21T00:08:50.841Z,4.85
2019-04-21T00:11:22.498Z,3.33
2019-04-21T00:13:50.734Z,3.22
2019-04-21T00:16:10.643Z,3.30
2019-04-21T00:18:49.883Z,4.37
2019-04-21T00:21:22.518Z,4.67
2019-04-21T00:24:01.309Z,5.50
2019-04-21T00:26:33.282Z,4.43
2019-04-21T00:29:10.453Z,6.90
2019-04-21T00:31:33.919Z,9.30
2019-04-21T00:33:51.953Z,4.93
2019-04-21T00:36:29.342Z,5.17
2019-04-21T00:39:26.613Z,3.52
2019-04-21T00:41:50.600Z,4.70
2019-04-21T00:44:08.721Z,5.70
2019-04-21T00:46:46.383Z,4.30
2019-04-21T00:49:18.252Z,4.60
2019-04-21T00:52:09.344Z,6.53
2019-04-21T00:54:33.088Z,3.93
2019-04-21T00:57:10.580Z,7.80
2019-04-21T00:59:31.856Z,5.37
2019-04-21T01:02:05.599Z,5.30
2019-04-21T01:04:42.991Z,4.97
2019-04-21T01:07:17.646Z,4.63
2019-04-21T01:09:37.329Z,6.87
2019-04-21T01:12:15.579Z,4.67
2019-04-21T01:14:49.657Z,7.97
2019-04-21T01:17:20.251Z,8.47
2019-04-21T01:19:46.877Z,10.00
2019-04-21T01:21:58.517Z,4.97
2019-04-21T01:24:33.161Z,11.40
2019-04-21T01:27:10.083Z,8.40
2019-04-21T01:29:55.188Z,8.57
2019-04-21T01:32:23.964Z,9.70
2019-04-21T01:34:58.231Z,9.30
2019-04-21T01:37:35.755Z,13.23
2019-04-21T01:40:06.541Z,12.40
2019-04-21T01:42:33.527Z,10.43
2019-04-21T01:45:00.980Z,11.17
2019-04-21T01:47:26.289Z,12.73
2019-04-21T01:49:55.617Z,14.40
2019-04-21T01:52:47.953Z,13.47
2019-04-21T01:55:13.795Z,13.37
2019-04-21T01:57:52.653Z,16.73
2019-04-21T02:00:19.391Z,15.57
2019-04-21T02:03:02.303Z,19.40
2019-04-21T02:05:36.375Z,17.50
2019-04-21T02:08:01.100Z,18.27
2019-04-21T02:10:44.477Z,15.73
2019-04-21T02:13:03.576Z,20.00
2019-04-21T02:18:07.315Z,22.03
2019-04-21T02:20:32.683Z,20.60
2019-04-21T02:25:47.704Z,21.23
2019-04-21T02:28:24.431Z,22.60
2019-04-21T02:33:43.091Z,22.87
2019-04-21T02:36:17.759Z,21.47
2019-04-21T02:40:57.292Z,24.90
2019-04-21T02:46:12.453Z,22.67
2019-04-21T02:48:50.153Z,20.47
2019-04-21T02:51:12.604Z,20.90
2019-04-21T02:59:02.265Z,24.03
2019-04-21T03:04:10.925Z,22.03
2019-04-21T03:07:01.692Z,24.23
2019-04-21T03:09:40.923Z,22.47
2019-04-21T03:12:04.781Z,18.73
2019-04-21T03:17:05.667Z,21.90
2019-04-21T03:22:21.072Z,20.57
2019-04-21T03:24:53.399Z,24.83
2019-04-21T03:27:18.634Z,24.97
2019-04-21T03:29:46.110Z,20.90
2019-04-21T03:39:54.613Z,21.67
2019-04-21T03:42:27.164Z,22.00
2019-04-21T03:55:44.753Z,20.77
2019-04-21T03:58:05.209Z,22.23
2019-04-21T04:00:42.518Z,20.00
2019-04-21T04:03:32.385Z,21.53
2019-04-21T04:06:01.865Z,21.93
2019-04-21T04:13:52.810Z,16.47
2019-04-21T04:16:10.698Z,18.50
2019-04-21T04:18:46.598Z,19.93
2019-04-21T04:21:20.608Z,17.83
2019-04-21T04:23:48.479Z,17.53
2019-04-21T04:26:19.114Z,18.77
2019-04-21T04:31:25.959Z,18.30
2019-04-21T04:33:58.163Z,17.30
2019-04-21T04:36:33.581Z,20.80
2019-04-21T04:39:28.063Z,17.47
2019-04-21T04:42:03.545Z,19.33
2019-04-21T04:44:39.388Z,19.27
2019-04-21T04:47:06.705Z,17.73
2019-04-21T05:02:29.196Z,18.00
2019-04-21T05:07:15.103Z,19.40
2019-04-21T05:09:47.057Z,16.90
2019-04-21T05:12:11.898Z,19.40
2019-04-21T05:14:46.152Z,21.37
2019-04-21T05:17:25.151Z,17.17
2019-04-21T05:20:03.907Z,17.97
2019-04-21T05:22:21.935Z,18.53
2019-04-21T05:24:37.742Z,18.03
2019-04-21T05:27:14.141Z,19.77
2019-04-21T05:29:58.720Z,19.67
2019-04-21T05:32:37.903Z,20.40
2019-04-21T05:34:55.978Z,17.07
2019-04-21T05:37:50.405Z,19.30
2019-04-21T05:40:14.094Z,15.70
2019-04-21T05:42:49.584Z,14.07
2019-04-21T05:45:26.844Z,20.60
2019-04-21T05:48:11.697Z,18.93
2019-04-21T05:50:30.499Z,19.60
2019-04-21T05:52:56.889Z,16.30
2019-04-21T05:55:56.854Z,17.73
2019-04-21T05:58:19.405Z,20.53
2019-04-21T06:00:59.441Z,15.90
2019-04-21T06:03:15.754Z,13.97
2019-04-21T06:08:38.967Z,14.90
2019-04-21T06:11:02.434Z,17.70
2019-04-21T06:16:02.698Z,13.97
2019-04-21T06:18:44.512Z,18.00
2019-04-21T06:23:50.131Z,12.50
2019-04-21T06:26:28.186Z,14.43
2019-04-21T06:28:45.321Z,15.23
2019-04-21T06:31:59.275Z,15.63
2019-04-21T06:33:54.077Z,16.00
2019-04-21T06:44:01.782Z,17.03
2019-04-21T06:46:41.112Z,18.27
2019-04-21T06:51:43.325Z,16.17
2019-04-21T06:54:03.881Z,15.43
2019-04-21T06:56:42.334Z,18.20
2019-04-21T06:59:29.881Z,18.93
2019-04-21T07:01:47.049Z,15.60
2019-04-21T07:04:18.457Z,15.93
2019-04-21T07:06:48.135Z,16.90
2019-04-21T07:11:43.855Z,13.67
2019-04-21T07:16:51.062Z,17.97
2019-04-21T07:19:30.583Z,12.43
2019-04-21T07:21:51.052Z,14.07
2019-04-21T07:24:27.556Z,13.10
2019-04-21T07:26:57.167Z,15.57
2019-04-21T07:29:28.541Z,15.43
2019-04-21T07:32:01.812Z,21.57
2019-04-21T07:36:59.663Z,18.30
2019-04-21T07:39:29.982Z,17.73
2019-04-21T07:41:59.290Z,14.50
2019-04-21T07:44:28.737Z,15.50
2019-04-21T07:46:57.356Z,15.00
2019-04-21T07:49:53.697Z,17.50
2019-04-21T07:52:22.264Z,18.03
2019-04-21T07:55:07.996Z,16.07
2019-04-21T07:57:33.161Z,14.33
2019-04-21T08:05:12.982Z,16.80
2019-04-21T08:07:47.721Z,11.93
2019-04-21T08:10:03.167Z,13.43
2019-04-21T08:12:35.131Z,17.10
2019-04-21T08:15:15.543Z,10.90
2019-04-21T08:17:41.124Z,19.33
2019-04-21T08:20:13.837Z,16.27
2019-04-21T08:22:49.415Z,13.60
2019-04-21T08:25:15.166Z,14.83
2019-04-21T08:30:22.794Z,14.20
2019-04-21T08:33:01.062Z,13.80
2019-04-21T08:37:56.489Z,11.03
2019-04-21T08:40:34.656Z,12.00
2019-04-21T08:43:01.155Z,13.90
2019-04-21T08:45:36.151Z,12.27
2019-04-21T08:48:04.252Z,12.80
2019-04-21T08:51:00.618Z,11.80
2019-04-21T08:53:11.335Z,12.80
2019-04-21T08:55:42.966Z,12.50
2019-04-21T08:58:35.445Z,13.40
2019-04-21T09:01:20.514Z,11.67
2019-04-21T09:03:59.936Z,11.77
2019-04-21T09:06:54.268Z,10.30
2019-04-21T09:09:03.678Z,13.27
2019-04-21T09:11:36.339Z,10.07
2019-04-21T09:14:07.807Z,11.47
2019-04-21T09:16:36.640Z,7.53
2019-04-21T09:19:11.517Z,8.30
2019-04-21T09:21:43.707Z,8.50
2019-04-21T09:24:16.645Z,8.20
2019-04-21T09:26:48.173Z,8.93
2019-04-21T09:29:13.989Z,8.93
2019-04-21T09:31:37.467Z,8.40
2019-04-21T09:34:04.476Z,10.43
2019-04-21T09:36:38.932Z,8.33
2019-04-21T09:39:14.296Z,8.33
2019-04-21T09:41:41.071Z,8.83
2019-04-21T09:44:17.269Z,8.47
2019-04-21T09:46:49.863Z,8.10
2019-04-21T09:49:20.662Z,6.60
2019-04-21T09:51:46.494Z,6.73
2019-04-21T09:54:22.880Z,7.33
2019-04-21T09:56:54.949Z,8.13
2019-04-21T09:59:26.297Z,8.53
2019-04-21T10:01:59.269Z,7.33
2019-04-21T10:04:23.247Z,6.00
2019-04-21T10:06:54.465Z,11.40
2019-04-21T10:09:24.536Z,6.57
2019-04-21T10:11:54.866Z,7.07
2019-04-21T10:14:24.959Z,7.77
2019-04-21T10:17:13.071Z,9.25
2019-04-21T10:19:44.147Z,8.08
2019-04-21T10:22:14.853Z,6.42
2019-04-21T10:24:46.733Z,6.12
2019-04-21T10:27:17.119Z,7.50
2019-04-21T10:29:48.741Z,6.67
2019-04-21T10:32:21.724Z,6.60
2019-04-21T10:34:50.277Z,8.85
2019-04-21T10:37:20.909Z,9.33
2019-04-21T10:39:53.710Z,6.63
2019-04-21T10:42:23.804Z,7.85
2019-04-21T10:44:54.731Z,5.72
2019-04-21T10:47:24.868Z,4.97
2019-04-21T10:49:54.956Z,4.97
2019-04-21T10:52:30.899Z,6.62
2019-04-21T10:55:20.846Z,8.70
2019-04-21T10:57:34.705Z,10.90
2019-04-21T11:00:11.779Z,5.70
2019-04-21T11:02:43.298Z,13.40
2019-04-21T11:05:14.569Z,5.10
2019-04-21T11:08:07.863Z,7.12
2019-04-21T11:10:23.778Z,8.03
2019-04-21T11:12:54.718Z,6.87
2019-04-21T11:15:25.256Z,9.23
2019-04-21T11:17:55.650Z,6.15
2019-04-21T11:20:26.812Z,5.43
2019-04-21T11:22:57.609Z,8.70
2019-04-21T11:25:28.234Z,7.95
2019-04-21T11:27:58.720Z,4.70
2019-04-21T11:30:29.844Z,6.27
2019-04-21T11:32:59.732Z,9.17
2019-04-21T11:35:30.819Z,7.00
2019-04-21T11:38:09.322Z,4.17
2019-04-21T11:40:36.062Z,6.20
2019-04-21T11:43:06.271Z,7.03
2019-04-21T11:45:38.289Z,3.93
2019-04-21T11:48:26.079Z,14.83
2019-04-21T11:50:57.294Z,6.47
2019-04-21T11:53:28.620Z,6.07
2019-04-21T11:55:58.886Z,4.03
2019-04-21T11:58:29.844Z,5.10
2019-04-21T12:01:03.320Z,4.00
2019-04-21T12:03:33.699Z,4.70
2019-04-21T12:06:03.750Z,7.03
2019-04-21T12:08:40.689Z,5.00
2019-04-21T12:11:07.337Z,6.20
2019-04-21T12:13:38.190Z,7.40
2019-04-21T12:16:08.722Z,7.13
2019-04-21T12:18:38.855Z,4.30
2019-04-21T12:21:09.396Z,5.75
2019-04-21T12:23:40.465Z,4.55
2019-04-21T12:26:10.647Z,4.63
2019-04-21T12:28:41.749Z,4.87
2019-04-21T12:31:13.663Z,5.75
2019-04-21T12:33:51.950Z,5.33
2019-04-21T12:36:22.007Z,6.30
2019-04-21T12:38:56.284Z,6.12
2019-04-21T12:41:26.575Z,8.43
2019-04-21T12:43:57.746Z,4.77
2019-04-21T12:46:27.732Z,4.10
2019-04-21T12:48:57.981Z,4.22
2019-04-21T12:51:28.211Z,3.83
2019-04-21T12:53:59.467Z,4.50
2019-04-21T12:56:29.696Z,5.37
2019-04-21T12:58:59.650Z,5.55
2019-04-21T13:01:30.717Z,4.55
2019-04-21T13:04:01.810Z,4.25
2019-04-21T13:06:31.983Z,7.00
2019-04-21T13:09:05.783Z,6.87
2019-04-21T13:11:35.124Z,11.80
2019-04-21T13:14:06.106Z,4.92
2019-04-21T13:16:37.158Z,3.58
2019-04-21T13:19:07.257Z,6.00
2019-04-21T13:21:38.117Z,4.20
2019-04-21T13:24:08.204Z,7.83
2019-04-21T13:26:45.479Z,6.80
2019-04-21T13:29:10.213Z,4.93
2019-04-21T13:31:40.473Z,4.27
2019-04-21T13:34:10.519Z,6.35
2019-04-21T13:36:41.394Z,5.73
2019-04-21T13:39:48.763Z,6.20
2019-04-21T13:42:01.910Z,5.60
2019-04-21T13:44:21.336Z,5.67
2019-04-21T13:46:52.462Z,4.22
2019-04-21T13:49:23.455Z,5.80
2019-04-21T13:51:54.178Z,6.33
2019-04-21T13:54:25.471Z,4.55
2019-04-21T13:56:56.541Z,4.30
2019-04-21T13:59:26.796Z,4.97
2019-04-21T14:01:58.401Z,4.03
2019-04-21T14:04:29.513Z,4.53
2019-04-21T14:07:00.508Z,3.80
2019-04-21T14:09:43.298Z,6.70
2019-04-21T14:12:03.428Z,5.42
2019-04-21T14:14:34.550Z,4.00
2019-04-21T14:17:05.463Z,6.03
2019-04-21T14:19:37.352Z,4.50
2019-04-21T14:22:11.651Z,5.70
2019-04-21T14:24:41.645Z,5.17
2019-04-21T14:27:12.160Z,4.35
2019-04-21T14:29:43.826Z,3.47
2019-04-21T14:32:14.231Z,5.55
2019-04-21T14:34:45.752Z,3.67
2019-04-21T14:37:16.942Z,5.42
2019-04-21T14:39:57.190Z,5.03
2019-04-21T14:42:20.157Z,5.33
2019-04-21T14:44:51.206Z,5.37
2019-04-21T14:47:29.446Z,4.22
2019-04-21T14:50:17.693Z,3.80
2019-04-21T14:52:50.425Z,6.22
2019-04-21T14:55:22.875Z,4.22
2019-04-21T14:57:52.947Z,7.30
2019-04-21T15:00:25.025Z,4.25
2019-04-21T15:02:55.920Z,4.05
2019-04-21T15:05:27.233Z,3.65
2019-04-21T15:07:57.414Z,5.55
2019-04-21T15:10:30.405Z,4.35
2019-04-21T15:12:59.393Z,4.45
2019-04-21T15:15:29.963Z,5.15
2019-04-21T15:18:00.225Z,5.70
2019-04-21T15:20:31.009Z,7.13
2019-04-21T15:23:02.134Z,3.57
2019-04-21T15:25:32.377Z,5.85
2019-04-21T15:28:03.204Z,3.87
2019-04-21T15:30:34.322Z,4.35
2019-04-21T15:33:04.604Z,6.92
2019-04-21T15:35:35.291Z,3.80
2019-04-21T15:38:07.510Z,3.83
2019-04-21T15:40:44.546Z,4.62
2019-04-21T15:43:10.587Z,4.85
2019-04-21T15:45:40.714Z,4.58
2019-04-21T15:48:11.898Z,4.28
2019-04-21T15:50:42.012Z,4.55
2019-04-21T15:53:14.336Z,2.87
2019-04-21T15:55:46.663Z,4.42
2019-04-21T15:58:20.974Z,5.50
2019-04-21T16:01:00.595Z,4.67
2019-04-21T16:03:31.097Z,4.45
2019-04-21T16:06:01.381Z,4.72
2019-04-21T16:08:31.521Z,4.42
2019-04-21T16:11:04.504Z,4.37
2019-04-21T16:13:34.087Z,8.80
2019-04-21T16:16:04.392Z,4.72
2019-04-21T16:18:36.299Z,3.80
2019-04-21T16:21:06.392Z,4.90
2019-04-21T16:23:36.458Z,9.50
2019-04-21T16:26:06.637Z,2.85
2019-04-21T16:28:37.386Z,4.90
2019-04-21T16:31:07.602Z,4.53
2019-04-21T16:33:38.682Z,3.37
2019-04-21T16:36:11.594Z,4.40
2019-04-21T16:38:41.806Z,2.33
2019-04-21T16:41:12.147Z,4.90
2019-04-21T16:43:43.357Z,7.10
2019-04-21T16:46:13.658Z,4.95
2019-04-21T16:48:44.144Z,5.50
2019-04-21T16:51:15.492Z,6.22
2019-04-21T16:53:53.281Z,3.10
2019-04-21T16:56:24.859Z,3.77
2019-04-21T16:58:56.724Z,6.58
2019-04-21T17:01:31.818Z,4.25
2019-04-21T17:04:02.421Z,6.17
2019-04-21T17:06:33.210Z,3.72
2019-04-21T17:09:03.338Z,3.60
2019-04-21T17:11:37.149Z,3.60
2019-04-21T17:14:17.695Z,6.47
2019-04-21T17:17:02.996Z,6.33
2019-04-21T17:19:19.034Z,5.20
2019-04-21T17:21:41.652Z,5.33
2019-04-21T17:24:12.668Z,5.50
2019-04-21T17:26:44.691Z,4.75
2019-04-21T17:29:14.648Z,5.42
2019-04-21T17:31:45.858Z,6.17
2019-04-21T17:34:20.087Z,5.60
2019-04-21T17:36:48.714Z,4.83
2019-04-21T17:39:20.654Z,5.35
2019-04-21T17:42:05.488Z,5.73
2019-04-21T17:44:23.501Z,4.80
2019-04-21T17:47:00.693Z,4.23
2019-04-21T17:49:26.088Z,7.60
2019-04-21T17:52:18.172Z,6.05
2019-04-21T17:54:51.155Z,3.00
2019-04-21T17:57:36.697Z,5.50
2019-04-21T18:00:13.886Z,5.50
2019-04-21T18:02:51.083Z,4.42
2019-04-21T18:05:15.278Z,5.25
2019-04-21T18:07:41.921Z,4.50
2019-04-21T18:10:14.215Z,3.10
2019-04-21T18:12:39.808Z,4.13
2019-04-21T18:15:20.608Z,4.30
2019-04-21T18:17:32.618Z,5.03
2019-04-21T18:20:03.793Z,5.27
2019-04-21T18:22:45.551Z,3.70
2019-04-21T18:25:28.122Z,4.97
2019-04-21T18:27:48.197Z,4.77
2019-04-21T18:30:38.159Z,3.67
2019-04-21T18:33:17.348Z,4.43
2019-04-21T18:36:00.648Z,3.97
2019-04-21T18:39:19.791Z,6.50
2019-04-21T18:41:29.668Z,5.13
2019-04-21T18:44:28.711Z,4.60
2019-04-21T18:47:14.733Z,3.63
2019-04-21T18:49:44.321Z,5.80
2019-04-21T18:52:42.782Z,5.70
2019-04-21T18:55:10.831Z,4.57
2019-04-21T18:57:37.441Z,4.70
2019-04-21T19:00:07.937Z,3.85
2019-04-21T19:02:40.976Z,4.50
2019-04-21T19:05:13.085Z,10.28
2019-04-21T19:07:55.814Z,5.25
2019-04-21T19:10:36.391Z,4.72
2019-04-21T19:15:26.857Z,5.50
2019-04-21T19:20:41.227Z,6.23
2019-04-21T19:23:05.569Z,5.93
2019-04-21T19:25:44.110Z,9.80
2019-04-21T19:28:09.976Z,8.67
2019-04-21T19:30:49.387Z,6.00
2019-04-21T19:33:16.044Z,6.37
2019-04-21T19:35:31.891Z,5.67
2019-04-21T19:38:07.040Z,6.17
2019-04-21T19:40:50.809Z,6.67
2019-04-21T19:43:17.244Z,7.70
2019-04-21T19:45:49.718Z,7.97
2019-04-21T19:48:27.514Z,4.37
2019-04-21T19:51:02.757Z,6.72
2019-04-21T19:53:32.859Z,4.72
2019-04-21T19:55:47.914Z,6.83
2019-04-21T19:58:20.638Z,4.80
2019-04-21T20:00:52.440Z,7.53
2019-04-21T20:03:21.091Z,5.60
2019-04-21T20:06:00.450Z,4.37
2019-04-21T20:08:41.725Z,6.73
2019-04-21T20:11:18.295Z,6.77
2019-04-21T20:14:18.321Z,5.70
2019-04-21T20:16:19.172Z,6.92
2019-04-21T20:18:36.860Z,4.75
2019-04-21T20:21:01.857Z,6.40
2019-04-21T20:23:35.454Z,4.17
2019-04-21T20:26:06.376Z,6.63
2019-04-21T20:28:45.802Z,5.13
2019-04-21T20:31:23.660Z,6.27
2019-04-21T20:33:59.593Z,4.40
2019-04-21T20:36:26.753Z,5.20
2019-04-21T20:38:51.859Z,4.43
2019-04-21T20:41:27.343Z,6.33
2019-04-21T20:44:04.222Z,4.67
2019-04-21T20:46:33.739Z,4.73
2019-04-21T20:48:59.936Z,5.73
2019-04-21T20:51:37.877Z,5.00
2019-04-21T20:54:02.963Z,4.20
2019-04-21T20:56:45.222Z,4.80
2019-04-21T20:59:11.957Z,5.30
2019-04-21T21:01:43.337Z,4.60
2019-04-21T21:04:10.939Z,7.17
2019-04-21T21:06:47.079Z,5.57
2019-04-21T21:09:14.192Z,4.93
2019-04-21T21:12:07.547Z,5.97
2019-04-21T21:14:24.951Z,4.33
2019-04-21T21:16:59.920Z,7.33
2019-04-21T21:19:28.885Z,7.77
2019-04-21T21:21:54.241Z,5.83
2019-04-21T21:24:36.164Z,6.67
2019-04-21T21:27:01.941Z,8.97
2019-04-21T21:29:45.350Z,5.23
2019-04-21T21:32:14.624Z,4.50
2019-04-21T21:34:43.473Z,6.63
2019-04-21T21:37:17.742Z,8.33
2019-04-21T21:39:51.034Z,5.63
2019-04-21T21:41:57.813Z,6.03
2019-04-21T21:44:26.600Z,4.80
2019-04-21T21:47:05.329Z,7.33
2019-04-21T21:49:44.009Z,7.50
2019-04-21T21:52:09.233Z,5.27
2019-04-21T21:54:31.770Z,6.13
2019-04-21T21:57:02.645Z,7.17
2019-04-21T21:59:36.814Z,5.77
2019-04-21T22:02:05.254Z,6.43
2019-04-21T22:04:37.271Z,5.90
2019-04-21T22:07:12.412Z,9.50
2019-04-21T22:09:39.909Z,5.83
2019-04-21T22:12:10.973Z,5.30
2019-04-21T22:14:46.895Z,5.60
2019-04-21T22:17:33.251Z,5.43
2019-04-21T22:20:08.527Z,7.47
2019-04-21T22:22:32.765Z,5.33
2019-04-21T22:25:00.772Z,5.50
2019-04-21T22:27:19.408Z,7.30
2019-04-21T22:29:53.494Z,6.00
2019-04-21T22:32:25.454Z,7.83
2019-04-21T22:34:58.369Z,4.77
2019-04-21T22:37:38.094Z,7.30
2019-04-21T22:40:09.199Z,5.27
2019-04-21T22:42:33.148Z,6.23
2019-04-21T22:44:58.670Z,9.40
2019-04-21T22:47:32.606Z,6.27
2019-04-21T22:50:00.270Z,6.80
2019-04-21T22:52:31.988Z,9.00
2019-04-21T22:55:08.264Z,5.23
2019-04-21T22:57:43.428Z,6.03
2019-04-21T23:00:11.832Z,7.87
2019-04-21T23:02:42.772Z,5.83
2019-04-21T23:05:15.608Z,10.60
2019-04-21T23:07:52.637Z,8.20
2019-04-21T23:10:17.205Z,7.83
2019-04-21T23:12:48.043Z,8.13
2019-04-21T23:15:22.404Z,6.93
2019-04-21T23:18:09.047Z,7.43
2019-04-21T23:20:43.648Z,8.97
2019-04-21T23:23:23.583Z,9.13
2019-04-21T23:25:44.242Z,5.13
2019-04-21T23:28:12.728Z,7.80
2019-04-21T23:30:51.518Z,7.67
2019-04-21T23:33:06.436Z,9.00
2019-04-21T23:35:36.755Z,7.17
2019-04-21T23:38:06.770Z,8.00
2019-04-21T23:40:35.303Z,7.83
2019-04-21T23:43:09.653Z,5.93
2019-04-21T23:45:41.185Z,8.83
2019-04-21T23:48:23.339Z,6.00
2019-04-21T23:50:50.694Z,7.70
2019-04-21T23:53:11.437Z,7.13
2019-04-21T23:55:41.382Z,17.30
2019-04-21T23:58:16.410Z,5.83
